Terminal Aerodrome Forecast
Issued by NWS

Current Version | Previous Version | Graphics & Text | Print | Product List | Glossary On
Versions: 1 2 3 4 5 6 7 8 9 10 11 12 13 14 15 16 17 18 19 20 21 22 23 24
000
FTUS41 KRLX 302300 RRA
TAFCKB
TAF
KCKB 302347Z 3100/3124 31008G13KT P6SM BKN035
     FM310200 32008KT P6SM BKN025
     FM310500 29006KT P6SM SCT025
     FM311800 24006KT P6SM BKN250=

USA.gov is the U.S. government's official web portal to all federal, state and local government web resources and services.